近畿・中四国TAF電文


関空(RJBB)
7/21 2h
TAF RJBB 201705Z 2018/2200 24008KT 9999 FEW020=

大阪(RJOO)
7/21 2h
TAF RJOO 201705Z 2018/2200 32004KT 9999 FEW020 BECMG 2022/2100
22006KT BECMG 2109/2112 27004KT BECMG 2121/2200 21005KT=

新広島(RJOA)
7/21 4h
TAF AMD RJOA 201951Z 2019/2200 23006KT 9999 FEW020=

岡山(RJOB)
7/21 2h
TAF RJOB 201705Z 2018/2200 04004KT 9999 FEW020 SCT035 BECMG
2021/2023 23010KT=

出雲(RJOC)
7/21 2h
TAF RJOC 201705Z 2018/2200 19006KT 9999 FEW020 SCT045 BECMG
2022/2100 24020KT TEMPO 2100/2106 24022G32KT BECMG
2112/2115 21006KT=

美保(RJOH)
7/21 2h
TAF RJOH 201705Z 2018/2200 19005KT 9999 FEW020 SCT045 BECMG
2023/2101 25018KT TEMPO 2101/2106 25020G30KT BECMG
2112/2115 22006KT=

高松(RJOT)
7/21 2h
TAF RJOT 201705Z 2018/2200 15005KT 9999 FEW025 BECMG 2020/2022
27008KT=

松山(RJOM)
7/21 2h
TAF RJOM 201705Z 2018/2200 30006KT 9999 FEW030 BECMG 2109/2112
12004KT=

高知(RJOK)
7/21 2h
TAF RJOK 201705Z 2018/2200 35004KT 9999 FEW015 BECMG 2022/2100
17007KT TEMPO 2103/2109 TS FEW010 FEW020CB SCT025 BECMG
2112/2115 35005KT BECMG 2121/2200 17005KT=
Copyright(c) 2014 International Meteorological & Oceanographic Consultants Co,.Ltd. All Rights Reserved. Design by http://f-tpl.com